Time;durP1;ratioP1;P1;durP2;ratioP2;P2;SDS_P1;SDS_P2;PMS_P1;PMS_P2;Temp;Humidity;BMP_temperature;BMP_pressure;BME280_temperature;BME280_humidity;BME280_pressure;Samples;Min_cycle;Max_cycle;Signal;HPM_P1;HPM_P2
2023/03/24 00:01:22;;;;;;;9.20;1.67;;;;;;;;;;5057854;28;20021;-50
2023/03/24 00:03:50;;;;;;;13.35;1.42;;;;;;;;;;5075946;28;20024;-51
2023/03/24 00:06:17;;;;;;;8.00;1.60;;;;;;;;;;5057680;28;20416;-49
2023/03/24 00:08:46;;;;;;;13.98;1.67;;;;;;;;;;5075528;28;20078;-49
2023/03/24 00:11:13;;;;;;;7.72;1.98;;;;;;;;;;5075251;28;20473;-56
2023/03/24 00:13:39;;;;;;;11.30;1.77;;;;;;;;;;5075351;28;20489;-49
2023/03/24 00:16:07;;;;;;;8.85;1.38;;;;;;;;;;5075384;28;20550;-50
2023/03/24 00:18:32;;;;;;;5.80;0.90;;;;;;;;;;5075445;28;20405;-51
2023/03/24 00:20:59;;;;;;;9.23;0.85;;;;;;;;;;5057709;28;20021;-50
2023/03/24 00:23:25;;;;;;;16.15;2.58;;;;;;;;;;5075309;28;20530;-49
2023/03/24 00:26:20;;;;;;;6.95;1.02;;;;;;;;;;5057479;28;20495;-50
2023/03/24 00:28:47;;;;;;;9.80;1.97;;;;;;;;;;5053676;28;20085;-50
2023/03/24 00:31:13;;;;;;;13.13;2.30;;;;;;;;;;5057332;28;20662;-49
2023/03/24 00:33:39;;;;;;;16.85;1.98;;;;;;;;;;5057289;28;20023;-50
2023/03/24 00:36:06;;;;;;;8.00;2.92;;;;;;;;;;5075088;28;20471;-50
2023/03/24 00:38:33;;;;;;;12.32;1.23;;;;;;;;;;5056820;28;20040;-50
2023/03/24 00:40:59;;;;;;;12.57;1.83;;;;;;;;;;5059542;28;20017;-52
2023/03/24 00:43:24;;;;;;;10.05;1.98;;;;;;;;;;5076948;28;20515;-50
2023/03/24 00:45:51;;;;;;;12.93;1.70;;;;;;;;;;5077291;28;20023;-51
2023/03/24 00:48:18;;;;;;;9.63;1.67;;;;;;;;;;5075292;28;20095;-49
2023/03/24 00:50:46;;;;;;;9.23;1.02;;;;;;;;;;5056689;28;20067;-51
2023/03/24 00:53:14;;;;;;;10.18;1.30;;;;;;;;;;5056629;28;20024;-50
2023/03/24 00:55:40;;;;;;;11.43;2.22;;;;;;;;;;5056717;28;20020;-50
2023/03/24 00:58:06;;;;;;;14.20;2.58;;;;;;;;;;5057013;28;20028;-50
2023/03/24 01:00:31;;;;;;;11.80;2.17;;;;;;;;;;5057869;28;20107;-52
2023/03/24 01:02:57;;;;;;;9.82;2.28;;;;;;;;;;5075878;28;20033;-55
2023/03/24 01:05:27;;;;;;;16.83;2.53;;;;;;;;;;5077401;28;20465;-50
2023/03/24 01:07:55;;;;;;;9.30;1.50;;;;;;;;;;5076850;28;20022;-49
2023/03/24 01:10:25;;;;;;;10.68;1.58;;;;;;;;;;5056589;28;20021;-50
2023/03/24 01:12:51;;;;;;;16.20;2.80;;;;;;;;;;5074576;28;20012;-50
2023/03/24 01:15:17;;;;;;;11.98;2.03;;;;;;;;;;5074224;28;20024;-49
2023/03/24 01:17:43;;;;;;;11.07;1.83;;;;;;;;;;5056281;28;20056;-51
2023/03/24 01:20:10;;;;;;;16.08;2.45;;;;;;;;;;5080927;28;20461;-50
2023/03/24 01:22:38;;;;;;;9.13;1.58;;;;;;;;;;5092808;28;20074;-50
2023/03/24 01:25:04;;;;;;;18.35;2.40;;;;;;;;;;5094030;28;20020;-55
2023/03/24 01:27:30;;;;;;;12.82;2.33;;;;;;;;;;5097292;28;20095;-53
2023/03/24 01:30:00;;;;;;;16.70;2.08;;;;;;;;;;5092949;28;20044;-51
2023/03/24 01:32:26;;;;;;;19.50;2.90;;;;;;;;;;5094024;28;20024;-50
2023/03/24 01:34:52;;;;;;;11.43;1.92;;;;;;;;;;5092803;28;20015;-50
2023/03/24 01:37:17;;;;;;;18.08;2.42;;;;;;;;;;5092583;28;20116;-49
2023/03/24 01:39:43;;;;;;;18.30;2.97;;;;;;;;;;5093198;28;20023;-50
2023/03/24 01:42:20;;;;;;;16.88;2.88;;;;;;;;;;5093102;28;20063;-50
2023/03/24 01:44:46;;;;;;;8.13;1.92;;;;;;;;;;5094006;28;20024;-49
2023/03/24 01:47:12;;;;;;;12.63;2.17;;;;;;;;;;5093816;28;20016;-51
2023/03/24 01:49:40;;;;;;;7.65;1.33;;;;;;;;;;5093372;28;20023;-50
2023/03/24 01:52:08;;;;;;;12.27;1.98;;;;;;;;;;5092808;28;20051;-50
2023/03/24 01:54:36;;;;;;;10.65;1.95;;;;;;;;;;5094236;28;20016;-51
2023/03/24 01:57:08;;;;;;;9.68;2.45;;;;;;;;;;5094070;28;20485;-50
2023/03/24 01:59:36;;;;;;;12.75;1.65;;;;;;;;;;5093051;28;20020;-49
2023/03/24 02:02:03;;;;;;;10.02;2.75;;;;;;;;;;5093939;28;20495;-50
2023/03/24 02:04:33;;;;;;;12.30;1.65;;;;;;;;;;5094188;28;20094;-49
2023/03/24 02:07:03;;;;;;;11.73;1.63;;;;;;;;;;5093047;28;20099;-50
2023/03/24 02:09:28;;;;;;;28.67;4.00;;;;;;;;;;5094251;28;20084;-50
2023/03/24 02:11:54;;;;;;;13.43;1.95;;;;;;;;;;5093646;28;20094;-50
2023/03/24 02:14:20;;;;;;;10.55;2.15;;;;;;;;;;5092514;28;20016;-50
2023/03/24 02:16:55;;;;;;;18.20;2.85;;;;;;;;;;5092165;28;20028;-50
2023/03/24 02:19:40;;;;;;;23.55;2.42;;;;;;;;;;5086026;28;20052;-50
2023/03/24 02:22:26;;;;;;;12.48;1.20;;;;;;;;;;5055371;28;20049;-50
2023/03/24 02:25:10;;;;;;;10.85;1.98;;;;;;;;;;5073214;28;20056;-51
2023/03/24 02:27:41;;;;;;;15.90;2.00;;;;;;;;;;5055743;28;20021;-50
2023/03/24 02:30:12;;;;;;;17.05;2.83;;;;;;;;;;5072781;28;20039;-50
2023/03/24 02:32:38;;;;;;;12.05;1.80;;;;;;;;;;5073236;28;20024;-50
2023/03/24 02:35:15;;;;;;;6.50;1.33;;;;;;;;;;5054652;28;20025;-49
2023/03/24 02:37:44;;;;;;;10.52;1.75;;;;;;;;;;5072983;28;20027;-51
2023/03/24 02:40:25;;;;;;;9.65;1.73;;;;;;;;;;5073088;28;20115;-50
2023/03/24 02:43:06;;;;;;;14.80;2.28;;;;;;;;;;5073058;28;20170;-51
2023/03/24 02:45:37;;;;;;;14.07;1.95;;;;;;;;;;5072800;28;20024;-51
2023/03/24 02:48:18;;;;;;;12.30;2.40;;;;;;;;;;5055044;28;20091;-49
2023/03/24 02:50:44;;;;;;;13.63;2.92;;;;;;;;;;5073661;28;20385;-50
2023/03/24 02:53:33;;;;;;;25.45;2.95;;;;;;;;;;5055485;28;20025;-49
2023/03/24 02:56:02;;;;;;;16.45;2.75;;;;;;;;;;5026624;28;20427;-52
2023/03/24 02:58:34;;;;;;;15.05;2.75;;;;;;;;;;5055149;28;20020;-50
2023/03/24 03:01:04;;;;;;;16.23;2.53;;;;;;;;;;5056117;28;20016;-51
2023/03/24 03:03:41;;;;;;;24.25;2.55;;;;;;;;;;5059365;28;20111;-55
2023/03/24 03:06:16;;;;;;;14.60;2.28;;;;;;;;;;5060626;28;20048;-55
2023/03/24 03:08:42;;;;;;;16.58;2.58;;;;;;;;;;5077780;28;20026;-50
2023/03/24 03:11:11;;;;;;;17.77;2.63;;;;;;;;;;5077826;28;20020;-54
2023/03/24 03:13:42;;;;;;;15.25;2.67;;;;;;;;;;5060433;28;20055;-49
2023/03/24 03:16:12;;;;;;;11.95;1.98;;;;;;;;;;5059944;28;20388;-53
2023/03/24 03:18:50;;;;;;;12.70;2.20;;;;;;;;;;5059193;28;20020;-49
2023/03/24 03:21:18;;;;;;;18.42;3.35;;;;;;;;;;5076311;28;20035;-49
2023/03/24 03:24:05;;;;;;;20.23;2.50;;;;;;;;;;5076251;28;20024;-49
2023/03/24 03:26:31;;;;;;;19.40;2.65;;;;;;;;;;5076399;28;20107;-49
2023/03/24 03:29:00;;;;;;;18.98;2.88;;;;;;;;;;5076066;28;20095;-51
2023/03/24 03:31:40;;;;;;;17.30;3.47;;;;;;;;;;5076151;28;20032;-50
2023/03/24 03:34:27;;;;;;;12.77;1.83;;;;;;;;;;5075974;28;20036;-52
2023/03/24 03:37:00;;;;;;;15.77;3.40;;;;;;;;;;5077008;28;20139;-51
2023/03/24 03:39:31;;;;;;;20.33;2.60;;;;;;;;;;5076859;28;20060;-50
2023/03/24 03:41:57;;;;;;;12.98;2.10;;;;;;;;;;5076797;28;20500;-55
2023/03/24 03:44:22;;;;;;;13.85;1.98;;;;;;;;;;5077010;28;20013;-50
2023/03/24 03:46:48;;;;;;;16.15;2.70;;;;;;;;;;5077212;28;20031;-50
2023/03/24 03:49:14;;;;;;;12.60;2.05;;;;;;;;;;5076533;28;20028;-50
2023/03/24 03:51:39;;;;;;;13.52;2.17;;;;;;;;;;5058053;28;20017;-53
2023/03/24 03:54:07;;;;;;;10.40;1.33;;;;;;;;;;5058009;28;20025;-50
2023/03/24 03:56:34;;;;;;;11.00;2.00;;;;;;;;;;5075995;28;20013;-58
2023/03/24 03:59:00;;;;;;;10.68;2.00;;;;;;;;;;5057666;28;20025;-50
2023/03/24 04:01:28;;;;;;;15.65;2.22;;;;;;;;;;5076231;28;20013;-54
2023/03/24 04:04:12;;;;;;;11.90;2.22;;;;;;;;;;5075577;28;20024;-49
2023/03/24 04:06:52;;;;;;;14.15;2.40;;;;;;;;;;5075854;28;20017;-49
2023/03/24 04:09:46;;;;;;;19.55;2.80;;;;;;;;;;5075704;28;20016;-49
2023/03/24 04:12:14;;;;;;;16.23;2.92;;;;;;;;;;5075999;28;20507;-57
2023/03/24 04:14:43;;;;;;;15.73;2.30;;;;;;;;;;5058029;28;20020;-51
2023/03/24 04:17:29;;;;;;;20.38;3.35;;;;;;;;;;5075557;28;20070;-49
2023/03/24 04:20:13;;;;;;;10.73;2.45;;;;;;;;;;5060107;28;20040;-50
2023/03/24 04:22:57;;;;;;;17.25;2.50;;;;;;;;;;5095810;28;20032;-50
2023/03/24 04:25:35;;;;;;;11.23;1.50;;;;;;;;;;5094083;28;20032;-49
2023/03/24 04:28:08;;;;;;;18.35;2.97;;;;;;;;;;5095713;28;20522;-49
2023/03/24 04:30:41;;;;;;;11.25;2.13;;;;;;;;;;5095362;28;20083;-49
2023/03/24 04:33:16;;;;;;;11.45;2.00;;;;;;;;;;5094070;28;20119;-50
2023/03/24 04:35:51;;;;;;;14.88;2.25;;;;;;;;;;5094465;28;20016;-50
2023/03/24 04:38:17;;;;;;;;;;;;;;;;;;5094398;28;20036;-49
2023/03/24 04:40:43;;;;;;;17.35;2.30;;;;;;;;;;5094048;28;19965;-51
2023/03/24 04:43:12;;;;;;;14.80;2.10;;;;;;;;;;5095986;28;20028;-51
2023/03/24 04:45:40;;;;;;;12.90;2.33;;;;;;;;;;5094729;28;20021;-50
2023/03/24 04:48:07;;;;;;;19.48;4.05;;;;;;;;;;5093964;28;20464;-49
2023/03/24 04:50:37;;;;;;;14.27;3.25;;;;;;;;;;5095269;28;20027;-49
2023/03/24 04:53:03;;;;;;;14.38;2.20;;;;;;;;;;5094901;28;20023;-50
2023/03/24 04:55:44;;;;;;;11.68;2.03;;;;;;;;;;5094597;28;20022;-50
2023/03/24 04:58:11;;;;;;;16.17;2.58;;;;;;;;;;5095552;28;20024;-58
2023/03/24 05:00:38;;;;;;;21.50;2.40;;;;;;;;;;5097060;28;20024;-51
2023/03/24 05:03:04;;;;;;;19.83;2.85;;;;;;;;;;5095363;28;20121;-56
2023/03/24 05:05:29;;;;;;;17.25;3.13;;;;;;;;;;5094760;28;20468;-51
2023/03/24 05:07:55;;;;;;;16.20;2.72;;;;;;;;;;5095487;28;20073;-50
2023/03/24 05:10:21;;;;;;;11.88;2.28;;;;;;;;;;5095107;28;20469;-53
2023/03/24 05:12:47;;;;;;;17.90;2.75;;;;;;;;;;5094666;28;20100;-49
2023/03/24 05:15:12;;;;;;;14.50;3.03;;;;;;;;;;5094593;28;20015;-50
2023/03/24 05:17:38;;;;;;;16.90;2.75;;;;;;;;;;5094292;28;20024;-49
2023/03/24 05:20:13;;;;;;;15.40;2.58;;;;;;;;;;5093226;28;20052;-49
2023/03/24 05:22:39;;;;;;;20.38;2.15;;;;;;;;;;5093154;28;20043;-55
2023/03/24 05:25:05;;;;;;;14.30;3.70;;;;;;;;;;5093817;28;20373;-49
2023/03/24 05:27:31;;;;;;;15.48;2.60;;;;;;;;;;5093121;28;20024;-50
2023/03/24 05:29:56;;;;;;;18.02;2.42;;;;;;;;;;5094425;28;20028;-49
2023/03/24 05:32:26;;;;;;;15.55;2.00;;;;;;;;;;5094091;28;20113;-50
2023/03/24 05:34:51;;;;;;;15.82;3.28;;;;;;;;;;5093857;28;20012;-51
2023/03/24 05:37:17;;;;;;;15.38;2.72;;;;;;;;;;5094009;28;20026;-50
2023/03/24 05:39:42;;;;;;;24.98;2.28;;;;;;;;;;5092848;28;20020;-50
2023/03/24 05:42:08;;;;;;;23.83;2.88;;;;;;;;;;5092484;28;20508;-50
2023/03/24 05:44:33;;;;;;;12.80;2.15;;;;;;;;;;5091992;28;20019;-50
2023/03/24 05:46:59;;;;;;;18.67;2.38;;;;;;;;;;5092371;28;20455;-50
2023/03/24 05:49:24;;;;;;;16.48;2.30;;;;;;;;;;5093348;28;20008;-51
2023/03/24 05:51:50;;;;;;;14.20;2.88;;;;;;;;;;5094005;28;20476;-50
2023/03/24 05:54:15;;;;;;;13.13;3.05;;;;;;;;;;5092445;28;20469;-51
2023/03/24 05:56:41;;;;;;;25.77;3.88;;;;;;;;;;5091976;28;20522;-50
2023/03/24 05:59:07;;;;;;;17.40;3.67;;;;;;;;;;5093035;28;20020;-51
2023/03/24 06:01:32;;;;;;;17.60;3.20;;;;;;;;;;5093537;28;20085;-50
2023/03/24 06:03:58;;;;;;;18.48;2.40;;;;;;;;;;5091363;28;20020;-51
2023/03/24 06:06:25;;;;;;;11.88;2.17;;;;;;;;;;5093598;28;20073;-50
2023/03/24 06:08:53;;;;;;;18.25;2.10;;;;;;;;;;5093284;28;20384;-51
2023/03/24 06:11:19;;;;;;;17.63;2.67;;;;;;;;;;5091562;28;20077;-51
2023/03/24 06:13:44;;;;;;;15.93;3.03;;;;;;;;;;5092950;28;20442;-50
2023/03/24 06:16:10;;;;;;;20.00;3.20;;;;;;;;;;5092829;28;20017;-50
2023/03/24 06:18:35;;;;;;;25.95;3.08;;;;;;;;;;5089897;28;20028;-50
2023/03/24 06:21:01;;;;;;;16.63;3.25;;;;;;;;;;5072023;28;20410;-52
2023/03/24 06:23:27;;;;;;;14.45;3.33;;;;;;;;;;5054196;28;20039;-56
2023/03/24 06:25:54;;;;;;;14.07;2.45;;;;;;;;;;5072627;28;20019;-51
2023/03/24 06:28:20;;;;;;;14.20;3.13;;;;;;;;;;5054412;28;20453;-51
2023/03/24 06:30:47;;;;;;;15.55;3.00;;;;;;;;;;5072630;28;20024;-51
2023/03/24 06:33:13;;;;;;;18.48;3.25;;;;;;;;;;5072097;28;20056;-49
2023/03/24 06:35:39;;;;;;;13.95;3.00;;;;;;;;;;5072328;28;20094;-51
2023/03/24 06:38:05;;;;;;;16.35;3.15;;;;;;;;;;5054706;28;20469;-51
2023/03/24 06:40:31;;;;;;;23.92;3.33;;;;;;;;;;5072574;28;20024;-51
2023/03/24 06:42:57;;;;;;;21.45;3.05;;;;;;;;;;5072463;28;20426;-51
2023/03/24 06:45:22;;;;;;;15.13;2.75;;;;;;;;;;5072469;28;20012;-50
2023/03/24 06:47:48;;;;;;;17.77;3.88;;;;;;;;;;5072097;28;20393;-51
2023/03/24 06:50:13;;;;;;;14.23;3.05;;;;;;;;;;5071734;28;20457;-52
2023/03/24 06:52:40;;;;;;;22.50;3.33;;;;;;;;;;5054023;28;20016;-50
2023/03/24 06:55:07;;;;;;;19.17;2.17;;;;;;;;;;5054622;28;20021;-52
2023/03/24 06:57:32;;;;;;;27.42;3.88;;;;;;;;;;5072526;28;20385;-51
2023/03/24 06:59:58;;;;;;;20.33;2.75;;;;;;;;;;5054375;28;20021;-52
2023/03/24 07:02:23;;;;;;;27.17;4.38;;;;;;;;;;5071545;28;20065;-51
2023/03/24 07:04:49;;;;;;;18.13;3.05;;;;;;;;;;5072158;28;20047;-51
2023/03/24 07:07:16;;;;;;;17.90;2.78;;;;;;;;;;5053983;28;20404;-52
2023/03/24 07:09:42;;;;;;;16.23;2.40;;;;;;;;;;5071520;28;20023;-51
2023/03/24 07:12:08;;;;;;;13.45;2.63;;;;;;;;;;5072110;28;20098;-50
2023/03/24 07:14:34;;;;;;;18.90;2.95;;;;;;;;;;5071939;28;20067;-52
2023/03/24 07:17:00;;;;;;;17.95;2.20;;;;;;;;;;5052652;28;20044;-51
2023/03/24 07:19:26;;;;;;;22.48;3.72;;;;;;;;;;5071173;28;20083;-51
2023/03/24 07:21:51;;;;;;;15.90;3.03;;;;;;;;;;5052966;28;20444;-56
2023/03/24 07:24:18;;;;;;;18.67;4.47;;;;;;;;;;5053435;28;20020;-51
2023/03/24 07:26:44;;;;;;;15.68;2.97;;;;;;;;;;5071330;28;20020;-51
2023/03/24 07:29:10;;;;;;;17.67;2.95;;;;;;;;;;5053198;28;20032;-52
2023/03/24 07:31:36;;;;;;;51.78;7.88;;;;;;;;;;5071091;28;20020;-51
2023/03/24 07:34:05;;;;;;;18.52;3.42;;;;;;;;;;5053310;28;20065;-52
2023/03/24 07:36:31;;;;;;;28.75;3.60;;;;;;;;;;5071368;28;20027;-52
2023/03/24 07:38:56;;;;;;;27.65;3.53;;;;;;;;;;5053500;28;20020;-50
2023/03/24 07:41:23;;;;;;;25.10;3.83;;;;;;;;;;5071001;28;20013;-52
2023/03/24 07:43:49;;;;;;;13.02;2.60;;;;;;;;;;5071103;28;20553;-53
2023/03/24 07:46:15;;;;;;;15.10;1.80;;;;;;;;;;5071482;28;20135;-51
2023/03/24 07:48:41;;;;;;;17.55;2.50;;;;;;;;;;5075038;28;20080;-51
2023/03/24 07:51:06;;;;;;;18.27;2.85;;;;;;;;;;5057108;28;20513;-51
2023/03/24 07:53:33;;;;;;;8.65;1.52;;;;;;;;;;5074904;28;20025;-58
2023/03/24 07:55:59;;;;;;;34.05;3.92;;;;;;;;;;5075048;28;20012;-51
2023/03/24 07:58:24;;;;;;;22.98;3.70;;;;;;;;;;5074720;28;20112;-53
2023/03/24 08:00:50;;;;;;;23.13;3.63;;;;;;;;;;5075061;28;20465;-51
2023/03/24 08:03:15;;;;;;;17.25;3.17;;;;;;;;;;5074743;28;20477;-51
2023/03/24 08:05:42;;;;;;;23.27;3.28;;;;;;;;;;5075240;28;20099;-52
2023/03/24 08:08:07;;;;;;;12.73;2.60;;;;;;;;;;5057439;28;20025;-51
2023/03/24 08:10:33;;;;;;;19.50;3.00;;;;;;;;;;5057064;28;20387;-51
2023/03/24 08:12:58;;;;;;;16.30;3.00;;;;;;;;;;5074868;28;20020;-50
2023/03/24 08:15:25;;;;;;;19.98;3.55;;;;;;;;;;5057095;28;20122;-51
2023/03/24 08:17:51;;;;;;;22.10;3.08;;;;;;;;;;5056930;28;20025;-50
2023/03/24 08:20:18;;;;;;;17.35;3.22;;;;;;;;;;5083129;28;20462;-50
2023/03/24 08:22:48;;;;;;;18.38;2.35;;;;;;;;;;5094576;28;20078;-49
2023/03/24 08:25:15;;;;;;;22.05;3.13;;;;;;;;;;5093302;28;20032;-50
2023/03/24 08:27:43;;;;;;;18.38;4.88;;;;;;;;;;5095895;28;20020;-51
2023/03/24 08:30:09;;;;;;;18.10;3.50;;;;;;;;;;5094077;28;20119;-51
2023/03/24 08:32:35;;;;;;;40.83;4.40;;;;;;;;;;5094992;28;20024;-50
2023/03/24 08:35:03;;;;;;;22.88;4.60;;;;;;;;;;5094007;28;20046;-51
2023/03/24 08:37:30;;;;;;;18.23;2.72;;;;;;;;;;5094453;28;20597;-51
2023/03/24 08:39:57;;;;;;;20.52;3.22;;;;;;;;;;5093411;28;20016;-51
2023/03/24 08:42:23;;;;;;;36.65;3.75;;;;;;;;;;5093525;28;20125;-53
2023/03/24 08:44:48;;;;;;;19.17;3.40;;;;;;;;;;5094573;28;20425;-52
2023/03/24 08:47:14;;;;;;;20.02;2.88;;;;;;;;;;5093677;28;20020;-52
2023/03/24 08:49:39;;;;;;;22.95;3.70;;;;;;;;;;5095243;28;20028;-50
2023/03/24 08:52:07;;;;;;;26.92;4.28;;;;;;;;;;5092915;28;20027;-50
2023/03/24 08:54:32;;;;;;;18.17;2.42;;;;;;;;;;5095179;28;20088;-50
2023/03/24 08:56:58;;;;;;;51.78;6.72;;;;;;;;;;5092177;28;20480;-50
2023/03/24 08:59:23;;;;;;;26.25;3.25;;;;;;;;;;5093220;28;20478;-51
2023/03/24 09:01:49;;;;;;;14.45;3.53;;;;;;;;;;5093892;28;20024;-51
2023/03/24 09:04:14;;;;;;;44.10;5.57;;;;;;;;;;5093917;28;20099;-51
2023/03/24 09:06:40;;;;;;;18.63;3.30;;;;;;;;;;5092415;28;20043;-52
2023/03/24 09:09:06;;;;;;;21.80;2.58;;;;;;;;;;5093685;28;20020;-50
2023/03/24 09:11:31;;;;;;;15.65;3.28;;;;;;;;;;5093692;28;20131;-50
2023/03/24 09:13:57;;;;;;;25.67;3.75;;;;;;;;;;5092508;28;20119;-52
2023/03/24 09:16:23;;;;;;;27.05;3.20;;;;;;;;;;5092527;28;20411;-50
2023/03/24 09:18:48;;;;;;;36.17;4.40;;;;;;;;;;5089008;28;20147;-50
2023/03/24 09:21:14;;;;;;;42.80;5.80;;;;;;;;;;5072755;28;20020;-50
2023/03/24 09:23:40;;;;;;;24.20;4.60;;;;;;;;;;5072976;28;20109;-53
2023/03/24 09:26:06;;;;;;;19.38;3.50;;;;;;;;;;5073252;28;20492;-50
2023/03/24 09:28:31;;;;;;;27.55;2.95;;;;;;;;;;5054643;28;20021;-52
2023/03/24 09:30:58;;;;;;;18.25;3.83;;;;;;;;;;5072643;28;20794;-53
2023/03/24 09:33:24;;;;;;;22.27;3.22;;;;;;;;;;5072765;28;20024;-51
2023/03/24 09:35:53;;;;;;;20.50;4.53;;;;;;;;;;5054557;28;20016;-52
2023/03/24 09:38:19;;;;;;;18.58;3.50;;;;;;;;;;5054396;28;20024;-50
2023/03/24 09:40:47;;;;;;;36.80;4.38;;;;;;;;;;5054191;28;20032;-52
2023/03/24 09:43:16;;;;;;;46.08;5.22;;;;;;;;;;5054227;28;20451;-50
2023/03/24 09:45:52;;;;;;;54.20;7.00;;;;;;;;;;5054564;28;20107;-51
2023/03/24 09:48:18;;;;;;;40.97;6.40;;;;;;;;;;5072781;28;20070;-52
2023/03/24 09:51:12;;;;;;;45.75;5.90;;;;;;;;;;5072418;28;20377;-52
2023/03/24 09:53:46;;;;;;;20.30;4.18;;;;;;;;;;5032997;28;20496;-53
2023/03/24 09:56:13;;;;;;;26.13;3.75;;;;;;;;;;5072344;28;20031;-52
2023/03/24 09:58:40;;;;;;;34.55;4.97;;;;;;;;;;5054001;28;20035;-51
2023/03/24 10:01:10;;;;;;;59.03;7.53;;;;;;;;;;5071630;28;20082;-54
2023/03/24 10:03:36;;;;;;;54.63;8.23;;;;;;;;;;5053638;28;20205;-51
2023/03/24 10:06:01;;;;;;;15.05;3.30;;;;;;;;;;5071986;28;20108;-52
2023/03/24 10:08:26;;;;;;;21.70;4.03;;;;;;;;;;5071632;28;20475;-52
2023/03/24 10:10:55;;;;;;;44.72;5.53;;;;;;;;;;5071717;28;20021;-52
2023/03/24 10:13:25;;;;;;;18.27;3.13;;;;;;;;;;5053394;28;20020;-51
2023/03/24 10:15:58;;;;;;;22.63;4.38;;;;;;;;;;5053945;28;20017;-52
2023/03/24 10:18:33;;;;;;;23.00;3.45;;;;;;;;;;5071954;28;20560;-51
2023/03/24 10:21:19;;;;;;;26.15;4.00;;;;;;;;;;5070106;28;20048;-53
2023/03/24 10:23:49;;;;;;;19.80;3.22;;;;;;;;;;5071502;28;20025;-53
2023/03/24 10:26:26;;;;;;;15.40;3.55;;;;;;;;;;5071941;28;20021;-51
2023/03/24 10:29:03;;;;;;;28.38;4.18;;;;;;;;;;5071769;28;20066;-51
2023/03/24 10:31:30;;;;;;;18.58;3.17;;;;;;;;;;5071824;28;20180;-51
2023/03/24 10:33:56;;;;;;;15.63;3.72;;;;;;;;;;5072023;28;20024;-52
2023/03/24 10:36:22;;;;;;;9.30;2.20;;;;;;;;;;5070605;28;20024;-52
2023/03/24 10:38:48;;;;;;;16.42;2.90;;;;;;;;;;5069775;28;20020;-52
2023/03/24 10:41:20;;;;;;;15.80;2.80;;;;;;;;;;5070967;28;20031;-51
2023/03/24 10:43:47;;;;;;;15.23;2.40;;;;;;;;;;5071278;28;20671;-52
2023/03/24 10:46:16;;;;;;;14.88;3.42;;;;;;;;;;5071305;28;20012;-52
2023/03/24 10:48:43;;;;;;;14.75;2.38;;;;;;;;;;5071407;28;20025;-52
2023/03/24 10:51:31;;;;;;;23.90;2.65;;;;;;;;;;5069411;28;20028;-51
2023/03/24 10:54:28;;;;;;;14.57;3.00;;;;;;;;;;5069484;28;20027;-52
2023/03/24 10:56:57;;;;;;;15.63;2.90;;;;;;;;;;5026048;28;20033;-52
2023/03/24 10:59:30;;;;;;;22.02;4.20;;;;;;;;;;5069590;28;20041;-52
2023/03/24 11:02:02;;;;;;;14.38;3.13;;;;;;;;;;5071096;28;20459;-51
2023/03/24 11:04:29;;;;;;;17.10;4.35;;;;;;;;;;5071136;28;20040;-52
2023/03/24 11:07:19;;;;;;;27.42;5.20;;;;;;;;;;5069023;28;20027;-52
2023/03/24 11:09:51;;;;;;;14.95;3.47;;;;;;;;;;5060539;28;20040;-52
2023/03/24 11:12:21;;;;;;;22.83;3.50;;;;;;;;;;5069639;28;20032;-53
2023/03/24 11:14:46;;;;;;;24.52;4.93;;;;;;;;;;5070677;28;20016;-53
2023/03/24 11:17:16;;;;;;;21.73;4.05;;;;;;;;;;5069240;28;20382;-52
2023/03/24 11:19:52;;;;;;;33.30;3.78;;;;;;;;;;5079452;28;20408;-51
2023/03/24 11:22:17;;;;;;;21.85;4.13;;;;;;;;;;5090482;28;20039;-51
2023/03/24 11:24:46;;;;;;;25.88;3.97;;;;;;;;;;5094438;28;20016;-51
2023/03/24 11:27:15;;;;;;;18.48;3.92;;;;;;;;;;5093277;28;20020;-51
2023/03/24 11:29:41;;;;;;;31.77;5.85;;;;;;;;;;5095457;28;20024;-51
2023/03/24 11:32:21;;;;;;;29.63;5.03;;;;;;;;;;5095737;28;20023;-53
2023/03/24 11:34:49;;;;;;;42.55;5.82;;;;;;;;;;5093902;28;20069;-51
2023/03/24 11:37:21;;;;;;;21.15;3.00;;;;;;;;;;5094771;28;20065;-53
2023/03/24 11:40:09;;;;;;;18.20;2.67;;;;;;;;;;5095689;28;20045;-51
2023/03/24 11:42:39;;;;;;;19.63;3.55;;;;;;;;;;5077595;28;20048;-52
2023/03/24 11:45:19;;;;;;;19.30;4.22;;;;;;;;;;5093975;28;20065;-52
2023/03/24 11:47:46;;;;;;;14.95;3.10;;;;;;;;;;5093733;28;20035;-50
2023/03/24 11:50:11;;;;;;;24.63;5.50;;;;;;;;;;5095176;28;20031;-51
2023/03/24 11:52:36;;;;;;;18.58;3.80;;;;;;;;;;5094868;28;20423;-50
2023/03/24 11:55:03;;;;;;;24.00;4.75;;;;;;;;;;5093222;28;20020;-53
2023/03/24 11:57:32;;;;;;;21.73;3.55;;;;;;;;;;5093323;28;20012;-50
2023/03/24 12:00:30;;;;;;;19.20;4.85;;;;;;;;;;5093685;28;20040;-51
2023/03/24 12:03:14;;;;;;;21.20;4.63;;;;;;;;;;5050034;28;20496;-51
2023/03/24 12:05:40;;;;;;;19.73;4.40;;;;;;;;;;5094364;28;20051;-51
2023/03/24 12:08:11;;;;;;;18.00;4.68;;;;;;;;;;5095052;28;20039;-50
2023/03/24 12:10:49;;;;;;;23.50;4.53;;;;;;;;;;5092892;28;20024;-52
2023/03/24 12:13:17;;;;;;;25.52;4.60;;;;;;;;;;5094503;28;20366;-52
2023/03/24 12:16:01;;;;;;;22.83;4.85;;;;;;;;;;5093485;28;20027;-51
2023/03/24 12:18:47;;;;;;;18.17;3.75;;;;;;;;;;5093496;28;20028;-52
2023/03/24 12:21:31;;;;;;;23.55;4.53;;;;;;;;;;5094229;28;20047;-53
2023/03/24 12:24:12;;;;;;;28.63;5.25;;;;;;;;;;5095184;28;20027;-50
2023/03/24 12:26:38;;;;;;;22.63;4.55;;;;;;;;;;5093387;28;20020;-52
2023/03/24 12:29:18;;;;;;;28.65;4.85;;;;;;;;;;5094258;28;20046;-52
2023/03/24 12:31:50;;;;;;;24.27;4.22;;;;;;;;;;5092761;28;20024;-50
2023/03/24 12:34:16;;;;;;;24.27;4.43;;;;;;;;;;5093409;28;20024;-51
2023/03/24 12:36:56;;;;;;;26.08;5.18;;;;;;;;;;5094233;28;20024;-50
2023/03/24 12:39:28;;;;;;;23.00;5.38;;;;;;;;;;5094301;28;20594;-51
2023/03/24 12:41:53;;;;;;;19.77;3.42;;;;;;;;;;5092771;28;20024;-51
2023/03/24 12:44:25;;;;;;;17.85;3.97;;;;;;;;;;5095045;28;20380;-51
